Time;durP1;ratioP1;P1;durP2;ratioP2;P2;SDS_P1;SDS_P2;PMS_P1;PMS_P2;Temp;Humidity;BMP_temperature;BMP_pressure;BME280_temperature;BME280_humidity;BME280_pressure;Samples;Min_cycle;Max_cycle;Signal;HPM_P1;HPM_P2
2024/01/14 00:02:17;;;;;;;311.95;131.15;;;-5.00;99.90;;;;;;5078471;28;20428;-53
2024/01/14 00:04:44;;;;;;;318.70;139.20;;;-5.10;99.90;;;;;;5078445;28;20537;-53
2024/01/14 00:07:10;;;;;;;319.98;137.93;;;-5.20;99.90;;;;;;5078204;28;20243;-53
2024/01/14 00:09:36;;;;;;;312.17;134.98;;;-5.20;99.90;;;;;;5078264;28;20046;-53
2024/01/14 00:12:04;;;;;;;427.73;177.38;;;-5.00;99.90;;;;;;5078295;28;20106;-53
2024/01/14 00:14:30;;;;;;;560.08;235.05;;;-5.00;99.90;;;;;;5078289;28;20562;-53
2024/01/14 00:16:56;;;;;;;508.48;212.02;;;-4.90;99.90;;;;;;5077700;28;20083;-53
2024/01/14 00:19:21;;;;;;;469.02;186.95;;;-5.00;99.90;;;;;;5076998;28;20055;-53
2024/01/14 00:21:47;;;;;;;439.98;176.15;;;-5.10;99.90;;;;;;5077138;28;20478;-53
2024/01/14 00:24:13;;;;;;;423.52;173.05;;;-5.00;99.90;;;;;;5076877;28;20359;-53
2024/01/14 00:26:39;;;;;;;417.63;167.43;;;-5.00;99.90;;;;;;5076536;28;20094;-53
2024/01/14 00:29:05;;;;;;;401.38;162.57;;;-5.10;99.90;;;;;;5076851;28;20029;-53
2024/01/14 00:31:31;;;;;;;399.02;158.15;;;-5.20;99.90;;;;;;5076732;28;20107;-53
2024/01/14 00:33:57;;;;;;;376.88;150.95;;;-5.30;99.90;;;;;;5076839;28;20033;-53
2024/01/14 00:36:23;;;;;;;399.50;159.82;;;-5.40;99.90;;;;;;5076604;28;20086;-53
2024/01/14 00:38:49;;;;;;;367.05;147.95;;;-5.40;99.90;;;;;;5076601;28;20082;-53
2024/01/14 00:41:15;;;;;;;372.20;150.07;;;-5.40;99.90;;;;;;5076654;28;20020;-53
2024/01/14 00:43:41;;;;;;;1041.18;354.13;;;-5.40;99.90;;;;;;5076665;28;20032;-53
2024/01/14 00:46:07;;;;;;;663.08;229.00;;;-5.40;99.90;;;;;;5076569;28;20028;-53
2024/01/14 00:48:32;;;;;;;499.80;176.73;;;-5.20;99.90;;;;;;5076250;28;20131;-53
2024/01/14 00:50:58;;;;;;;448.10;153.93;;;-5.30;99.90;;;;;;5076519;28;20390;-53
2024/01/14 00:53:24;;;;;;;392.40;142.57;;;-5.30;99.90;;;;;;5076560;28;20040;-53
2024/01/14 00:55:51;;;;;;;480.15;167.20;;;-5.20;99.90;;;;;;5076384;28;20491;-53
2024/01/14 00:58:16;;;;;;;709.22;256.92;;;-5.20;99.90;;;;;;5076401;28;20039;-53
2024/01/14 01:00:43;;;;;;;853.08;304.77;;;-5.30;99.90;;;;;;5076318;28;20033;-53
2024/01/14 01:03:09;;;;;;;833.58;291.27;;;-5.40;99.90;;;;;;5076305;28;20029;-53
2024/01/14 01:05:34;;;;;;;734.50;260.00;;;-5.40;99.90;;;;;;5076413;28;20044;-53
2024/01/14 01:08:01;;;;;;;638.97;228.30;;;-5.50;99.90;;;;;;5076052;28;20107;-53
2024/01/14 01:10:27;;;;;;;601.13;216.25;;;-5.50;99.90;;;;;;5076109;28;20020;-53
2024/01/14 01:12:53;;;;;;;595.17;213.23;;;-5.60;99.90;;;;;;5076199;28;20039;-53
2024/01/14 01:15:19;;;;;;;540.67;191.00;;;-5.60;99.90;;;;;;5076219;28;20051;-53
2024/01/14 01:17:45;;;;;;;465.60;167.30;;;-5.50;99.90;;;;;;5029395;28;1329221;-53
2024/01/14 01:20:11;;;;;;;405.27;147.82;;;-5.40;99.90;;;;;;5077021;28;20081;-53
2024/01/14 01:22:37;;;;;;;438.85;167.38;;;-5.40;99.90;;;;;;5076911;28;20533;-53
2024/01/14 01:25:03;;;;;;;443.00;171.77;;;-5.50;99.90;;;;;;5076980;28;20052;-53
2024/01/14 01:27:29;;;;;;;428.50;174.57;;;-5.40;99.90;;;;;;5076844;28;20029;-53
2024/01/14 01:29:56;;;;;;;446.60;188.23;;;-5.40;99.90;;;;;;5076787;28;20035;-53
2024/01/14 01:32:22;;;;;;;397.75;159.38;;;-5.40;99.90;;;;;;5076702;28;20056;-53
2024/01/14 01:34:48;;;;;;;489.85;184.80;;;-5.50;99.90;;;;;;5076740;28;20028;-53
2024/01/14 01:37:14;;;;;;;507.23;191.23;;;-5.60;99.90;;;;;;5075727;28;20028;-53
2024/01/14 01:39:40;;;;;;;457.17;165.77;;;-5.60;99.90;;;;;;5076640;28;20355;-53
2024/01/14 01:42:06;;;;;;;467.17;177.38;;;-5.50;99.90;;;;;;5076597;28;20028;-53
2024/01/14 01:44:33;;;;;;;498.92;182.35;;;-5.40;99.90;;;;;;5076569;28;20035;-53
2024/01/14 01:47:00;;;;;;;431.88;165.77;;;-5.40;99.90;;;;;;5076262;28;20032;-53
2024/01/14 01:49:29;;;;;;;395.92;151.27;;;-5.50;99.90;;;;;;5076463;28;20013;-53
2024/01/14 01:51:57;;;;;;;382.67;146.48;;;-5.40;99.90;;;;;;5076387;28;20112;-53
2024/01/14 01:54:26;;;;;;;362.85;143.63;;;-5.50;99.90;;;;;;5076367;28;20060;-53
2024/01/14 01:56:53;;;;;;;353.42;139.68;;;-5.40;99.90;;;;;;5076188;28;20390;-53
2024/01/14 01:59:20;;;;;;;370.10;143.43;;;-5.50;99.90;;;;;;5076361;28;20025;-53
2024/01/14 02:01:47;;;;;;;332.25;134.75;;;-5.50;99.90;;;;;;5074890;28;20029;-53
2024/01/14 02:04:14;;;;;;;316.52;125.57;;;-5.50;99.90;;;;;;5076010;28;20051;-53
2024/01/14 02:06:41;;;;;;;314.98;127.20;;;-5.60;99.90;;;;;;5075947;28;20535;-53
2024/01/14 02:09:08;;;;;;;399.83;149.02;;;-5.60;99.90;;;;;;5075962;28;20523;-53
2024/01/14 02:11:37;;;;;;;383.00;147.52;;;-5.60;99.90;;;;;;5076011;28;20462;-53
2024/01/14 02:14:04;;;;;;;352.30;141.00;;;-5.70;99.90;;;;;;5075944;28;20462;-53
2024/01/14 02:16:30;;;;;;;340.23;134.13;;;-5.70;99.90;;;;;;5075696;28;20488;-53
2024/01/14 02:18:56;;;;;;;368.45;144.02;;;-5.60;99.90;;;;;;5075760;28;20028;-53
2024/01/14 02:21:39;;;;;;;370.35;143.73;;;-5.60;99.90;;;;;;5075914;28;20040;-53
2024/01/14 02:24:24;;;;;;;349.35;137.30;;;-5.60;99.90;;;;;;5075877;28;20036;-53
2024/01/14 02:26:50;;;;;;;337.10;133.48;;;-5.70;99.90;;;;;;5075733;28;20115;-53
2024/01/14 02:29:16;;;;;;;325.85;129.20;;;-5.80;99.90;;;;;;5075731;28;20063;-53
2024/01/14 02:31:41;;;;;;;366.50;145.07;;;-5.80;99.90;;;;;;5075678;28;20048;-53
2024/01/14 02:34:07;;;;;;;357.20;139.98;;;-5.90;99.90;;;;;;5075783;28;20025;-53
2024/01/14 02:36:34;;;;;;;353.92;137.60;;;-5.90;99.90;;;;;;5075552;28;20029;-53
2024/01/14 02:38:59;;;;;;;338.38;135.38;;;-6.00;99.90;;;;;;5075617;28;20070;-53
2024/01/14 02:41:25;;;;;;;330.90;135.52;;;-6.00;99.90;;;;;;5075673;28;20025;-53
2024/01/14 02:43:51;;;;;;;309.42;125.80;;;-6.00;99.90;;;;;;5075606;28;20408;-53
2024/01/14 02:46:17;;;;;;;305.88;125.28;;;-6.00;99.90;;;;;;5075760;28;20043;-53
2024/01/14 02:48:43;;;;;;;301.23;123.80;;;-5.90;99.90;;;;;;5075544;28;20045;-53
2024/01/14 02:51:08;;;;;;;299.05;123.32;;;-5.90;99.90;;;;;;5075546;28;20116;-53
2024/01/14 02:53:35;;;;;;;333.90;134.40;;;-5.90;99.90;;;;;;5073823;28;20033;-53
2024/01/14 02:56:01;;;;;;;324.83;131.90;;;-6.00;99.90;;;;;;5075300;28;20056;-53
2024/01/14 02:58:27;;;;;;;307.42;124.13;;;-6.00;99.90;;;;;;5075249;28;20082;-53
2024/01/14 03:00:54;;;;;;;309.27;127.72;;;-6.00;99.90;;;;;;5075592;28;20474;-53
2024/01/14 03:03:21;;;;;;;321.50;130.50;;;-5.90;99.90;;;;;;5075455;28;20020;-53
2024/01/14 03:05:47;;;;;;;317.30;130.43;;;-5.90;99.90;;;;;;5075158;28;20033;-53
2024/01/14 03:08:13;;;;;;;315.40;125.85;;;-5.90;99.90;;;;;;5074963;28;20059;-53
2024/01/14 03:10:39;;;;;;;261.58;110.95;;;-5.90;99.90;;;;;;5075628;28;20378;-53
2024/01/14 03:13:05;;;;;;;334.20;131.98;;;-6.00;99.90;;;;;;5075266;28;20077;-53
2024/01/14 03:15:30;;;;;;;306.75;125.72;;;-5.90;99.90;;;;;;5075191;28;20035;-53
2024/01/14 03:17:56;;;;;;;318.20;130.63;;;-5.90;99.90;;;;;;5075105;28;20443;-53
2024/01/14 03:20:22;;;;;;;304.27;118.38;;;-6.00;99.90;;;;;;5075167;28;20028;-53
2024/01/14 03:22:48;;;;;;;276.55;113.55;;;-5.90;99.90;;;;;;5075032;28;20040;-53
2024/01/14 03:25:14;;;;;;;273.55;114.65;;;-6.00;99.90;;;;;;5075154;28;20490;-53
2024/01/14 03:27:40;;;;;;;254.40;104.65;;;-5.90;99.90;;;;;;5075117;28;20024;-53
2024/01/14 03:30:06;;;;;;;249.70;106.00;;;-5.90;99.90;;;;;;5075127;28;20021;-53
2024/01/14 03:32:32;;;;;;;239.95;101.30;;;-6.00;99.90;;;;;;5074951;28;20088;-53
2024/01/14 03:34:58;;;;;;;240.45;104.88;;;-6.10;99.90;;;;;;5075069;28;20029;-53
2024/01/14 03:37:24;;;;;;;250.65;108.95;;;-6.10;99.90;;;;;;5074838;28;20050;-53
2024/01/14 03:39:50;;;;;;;260.42;107.35;;;-6.30;99.90;;;;;;5075123;28;20032;-53
2024/01/14 03:42:16;;;;;;;279.73;115.03;;;-6.30;99.90;;;;;;5075008;28;20028;-53
2024/01/14 03:44:42;;;;;;;292.70;121.43;;;-6.30;99.90;;;;;;5075078;28;20083;-53
2024/01/14 03:47:08;;;;;;;330.52;132.20;;;-6.30;99.90;;;;;;5074941;28;20040;-53
2024/01/14 03:49:33;;;;;;;303.25;124.63;;;-6.30;99.90;;;;;;5074873;28;20359;-53
2024/01/14 03:51:59;;;;;;;280.63;116.95;;;-6.30;99.90;;;;;;5074921;28;20078;-53
2024/01/14 03:54:25;;;;;;;261.55;107.55;;;-6.30;99.90;;;;;;5074921;28;20032;-53
2024/01/14 03:56:51;;;;;;;236.82;100.47;;;-6.20;99.90;;;;;;5074797;28;20033;-53
2024/01/14 03:59:17;;;;;;;225.07;95.18;;;-6.30;99.90;;;;;;5075090;28;20033;-53
2024/01/14 04:01:43;;;;;;;211.20;90.63;;;-6.20;99.90;;;;;;5078017;28;20017;-53
2024/01/14 04:04:09;;;;;;;211.73;88.75;;;-6.20;99.90;;;;;;5078395;28;20032;-53
2024/01/14 04:06:35;;;;;;;195.48;81.47;;;-6.20;99.90;;;;;;5078091;28;20062;-53
2024/01/14 04:09:01;;;;;;;254.13;106.32;;;-6.20;99.90;;;;;;5078600;28;20120;-53
2024/01/14 04:11:27;;;;;;;214.73;90.63;;;-6.20;99.90;;;;;;5078396;28;20032;-53
2024/01/14 04:13:53;;;;;;;210.00;83.90;;;-6.00;99.90;;;;;;5078289;28;20047;-53
2024/01/14 04:16:21;;;;;;;193.23;83.75;;;-5.80;99.90;;;;;;5078237;28;20526;-53
2024/01/14 04:18:46;;;;;;;201.38;84.00;;;-5.80;99.90;;;;;;5078008;28;20074;-53
2024/01/14 04:21:23;;;;;;;210.18;90.28;;;-5.80;99.90;;;;;;5078178;28;20462;-53
2024/01/14 04:23:49;;;;;;;220.40;92.43;;;-5.90;99.90;;;;;;5078052;28;20089;-53
2024/01/14 04:26:21;;;;;;;218.65;91.78;;;-5.80;99.90;;;;;;5078078;28;20035;-53
2024/01/14 04:28:48;;;;;;;230.80;91.72;;;-5.70;99.90;;;;;;5078170;28;20052;-53
2024/01/14 04:31:14;;;;;;;231.15;95.00;;;-5.50;99.90;;;;;;5078125;28;20091;-53
2024/01/14 04:33:40;;;;;;;207.50;87.97;;;-5.50;99.90;;;;;;5078022;28;20051;-53
2024/01/14 04:36:06;;;;;;;173.05;73.45;;;-5.50;99.90;;;;;;5077775;28;20029;-53
2024/01/14 04:38:32;;;;;;;171.25;73.15;;;-5.70;99.90;;;;;;5077925;28;20082;-53
2024/01/14 04:40:58;;;;;;;166.68;73.30;;;-6.10;99.90;;;;;;5077842;28;20029;-53
2024/01/14 04:43:24;;;;;;;181.23;75.13;;;-6.10;99.90;;;;;;5077803;28;20084;-53
2024/01/14 04:45:50;;;;;;;192.43;80.50;;;-6.30;99.90;;;;;;5077752;28;20082;-53
2024/01/14 04:48:16;;;;;;;192.05;80.80;;;-6.20;99.90;;;;;;5077596;28;20104;-53
2024/01/14 04:50:42;;;;;;;177.95;79.43;;;-6.20;99.90;;;;;;5077738;28;20110;-53
2024/01/14 04:53:08;;;;;;;193.02;80.03;;;-6.20;99.90;;;;;;5077429;28;20063;-53
2024/01/14 04:55:34;;;;;;;166.15;74.03;;;-6.20;99.90;;;;;;5077528;28;20024;-53
2024/01/14 04:58:00;;;;;;;172.30;73.38;;;-6.20;99.90;;;;;;5077462;28;20120;-53
2024/01/14 05:00:26;;;;;;;173.27;73.70;;;-6.40;99.90;;;;;;5077328;28;20064;-53
2024/01/14 05:02:52;;;;;;;167.30;73.13;;;-6.40;99.90;;;;;;5077318;28;20482;-53
2024/01/14 05:05:18;;;;;;;173.52;73.50;;;-6.40;99.90;;;;;;5077221;28;20398;-53
2024/01/14 05:07:44;;;;;;;182.98;78.82;;;-6.40;99.90;;;;;;5077202;28;20025;-53
2024/01/14 05:10:10;;;;;;;208.55;90.00;;;-6.40;99.90;;;;;;5077163;28;20028;-53
2024/01/14 05:12:36;;;;;;;201.07;85.13;;;-6.40;99.90;;;;;;5076067;28;20032;-53
2024/01/14 05:15:02;;;;;;;190.02;83.28;;;-6.20;99.90;;;;;;5077175;28;20508;-53
2024/01/14 05:17:28;;;;;;;202.57;89.55;;;-6.00;99.90;;;;;;5076810;28;20024;-53
2024/01/14 05:19:54;;;;;;;198.40;86.60;;;-5.90;99.90;;;;;;5077058;28;20104;-53
2024/01/14 05:22:20;;;;;;;184.07;76.40;;;-5.80;99.90;;;;;;5077010;28;20039;-53
2024/01/14 05:24:46;;;;;;;176.23;77.13;;;-5.60;99.90;;;;;;5076905;28;20037;-53
2024/01/14 05:27:13;;;;;;;186.10;75.45;;;-5.50;99.90;;;;;;5076854;28;20035;-53
2024/01/14 05:29:45;;;;;;;176.90;69.72;;;-5.40;99.90;;;;;;5076870;28;20064;-53
2024/01/14 05:32:16;;;;;;;175.38;70.90;;;-5.40;99.90;;;;;;5076783;28;20124;-53
2024/01/14 05:34:42;;;;;;;;;;;-5.30;99.90;;;;;;5077240;28;20028;-53
2024/01/14 05:37:08;;;;;;;189.55;79.10;;;-5.20;99.90;;;;;;5076725;28;19913;-53
2024/01/14 05:39:34;;;;;;;181.77;73.78;;;-5.20;99.90;;;;;;5076647;28;20021;-53
2024/01/14 05:42:01;;;;;;;190.27;76.78;;;-5.30;99.90;;;;;;5076615;28;20031;-53
2024/01/14 05:44:26;;;;;;;165.98;67.45;;;-5.30;99.90;;;;;;5076496;28;20021;-53
2024/01/14 05:46:53;;;;;;;182.80;78.15;;;-5.40;99.90;;;;;;5076491;28;20466;-53
2024/01/14 05:49:20;;;;;;;194.88;82.05;;;-5.40;99.90;;;;;;5076483;28;20466;-53
2024/01/14 05:51:46;;;;;;;182.60;76.57;;;-5.40;99.90;;;;;;5076450;28;20020;-53
2024/01/14 05:54:13;;;;;;;185.07;76.85;;;-5.60;99.90;;;;;;5076220;28;20470;-53
2024/01/14 05:56:39;;;;;;;189.15;80.75;;;-5.60;99.90;;;;;;5076197;28;20033;-53
2024/01/14 05:59:04;;;;;;;185.95;78.43;;;-5.60;99.90;;;;;;5076281;28;20094;-53
2024/01/14 06:01:30;;;;;;;178.38;76.90;;;-5.70;99.90;;;;;;5076232;28;20466;-53
2024/01/14 06:03:56;;;;;;;181.98;77.20;;;-5.70;99.90;;;;;;5074976;28;20032;-53
2024/01/14 06:06:22;;;;;;;167.70;72.53;;;-5.70;99.90;;;;;;5075926;28;20067;-53
2024/01/14 06:08:48;;;;;;;155.98;68.97;;;-5.70;99.90;;;;;;5075830;28;20028;-53
2024/01/14 06:11:14;;;;;;;157.27;68.53;;;-5.70;99.90;;;;;;5075991;28;20024;-53
2024/01/14 06:13:43;;;;;;;148.60;64.32;;;-5.80;99.90;;;;;;5076036;28;20065;-53
2024/01/14 06:16:10;;;;;;;146.93;63.97;;;-5.80;99.90;;;;;;5075956;28;20031;-53
2024/01/14 06:18:36;;;;;;;141.77;62.13;;;-5.80;99.90;;;;;;5075810;28;20078;-53
2024/01/14 06:21:02;;;;;;;144.27;65.38;;;-6.10;99.90;;;;;;5075983;28;20051;-53
2024/01/14 06:23:29;;;;;;;156.63;66.75;;;-6.00;99.90;;;;;;5075500;28;20035;-53
2024/01/14 06:25:55;;;;;;;148.60;67.82;;;-6.00;99.90;;;;;;5075700;28;20078;-53
2024/01/14 06:28:21;;;;;;;162.40;71.60;;;-6.00;99.90;;;;;;5075573;28;20036;-53
2024/01/14 06:30:47;;;;;;;158.18;68.50;;;-6.00;99.90;;;;;;5075711;28;20029;-53
2024/01/14 06:33:13;;;;;;;168.90;68.43;;;-5.90;99.90;;;;;;5075747;28;20025;-53
2024/01/14 06:35:39;;;;;;;169.82;73.25;;;-5.90;99.90;;;;;;5075694;28;20044;-53
2024/01/14 06:38:08;;;;;;;159.45;72.55;;;-5.80;99.90;;;;;;5075619;28;20106;-53
2024/01/14 06:40:34;;;;;;;169.30;76.90;;;-5.70;99.90;;;;;;5074167;28;20110;-53
2024/01/14 06:43:00;;;;;;;134.52;61.20;;;-5.60;99.90;;;;;;5075969;28;20025;-53
2024/01/14 06:45:25;;;;;;;134.23;60.85;;;-5.50;99.90;;;;;;5075877;28;20099;-53
2024/01/14 06:47:51;;;;;;;135.27;61.60;;;-5.70;99.90;;;;;;5075491;28;20063;-53
2024/01/14 06:50:17;;;;;;;143.02;62.75;;;-5.60;99.90;;;;;;5075558;28;20488;-53
2024/01/14 06:52:43;;;;;;;155.48;69.50;;;-5.70;99.90;;;;;;5075476;28;20032;-53
2024/01/14 06:55:12;;;;;;;155.85;71.75;;;-5.60;99.90;;;;;;5075287;28;20036;-53
2024/01/14 06:57:38;;;;;;;153.32;70.97;;;-5.60;99.90;;;;;;5075490;28;20036;-53
2024/01/14 07:00:05;;;;;;;173.77;79.40;;;-5.50;99.90;;;;;;5075467;28;20037;-53
2024/01/14 07:02:31;;;;;;;181.63;83.10;;;-5.40;99.90;;;;;;5075194;28;20032;-53
2024/01/14 07:04:57;;;;;;;169.55;74.72;;;-5.40;99.90;;;;;;5075459;28;20017;-53
2024/01/14 07:07:23;;;;;;;180.07;78.97;;;-5.30;99.90;;;;;;5075175;28;20107;-53
2024/01/14 07:09:48;;;;;;;196.25;87.72;;;-5.20;99.90;;;;;;5075364;28;20028;-53
2024/01/14 07:12:14;;;;;;;182.38;84.75;;;-5.20;99.90;;;;;;5075456;28;20041;-53
2024/01/14 07:14:40;;;;;;;178.23;80.90;;;-5.10;99.90;;;;;;5075335;28;20059;-53
2024/01/14 07:17:07;;;;;;;195.77;91.65;;;-5.10;99.90;;;;;;5075179;28;20442;-53
2024/01/14 07:19:35;;;;;;;203.90;92.43;;;-5.00;99.90;;;;;;5075185;28;20017;-53
2024/01/14 07:22:02;;;;;;;203.18;92.47;;;-5.00;99.90;;;;;;5075192;28;20020;-53
2024/01/14 07:24:28;;;;;;;197.32;90.70;;;-4.80;99.90;;;;;;5075144;28;20033;-53
2024/01/14 07:26:53;;;;;;;162.27;71.75;;;-4.60;99.90;;;;;;5075079;28;20035;-53
2024/01/14 07:29:19;;;;;;;146.00;65.80;;;-4.60;99.90;;;;;;5075254;28;20028;-53
2024/01/14 07:31:45;;;;;;;148.52;66.88;;;-4.50;99.90;;;;;;5075015;28;20399;-53
2024/01/14 07:34:11;;;;;;;162.77;73.28;;;-4.20;99.90;;;;;;5075097;28;20107;-53
2024/01/14 07:36:37;;;;;;;168.65;76.93;;;-3.90;99.90;;;;;;5078168;28;20047;-53
2024/01/14 07:39:04;;;;;;;165.68;75.40;;;-3.60;99.90;;;;;;5079010;28;20020;-53
2024/01/14 07:41:30;;;;;;;675.28;110.35;;;-2.90;99.90;;;;;;5078879;28;20032;-53
2024/01/14 07:43:56;;;;;;;203.15;80.78;;;-2.10;99.90;;;;;;5078956;28;20032;-53
2024/01/14 07:46:22;;;;;;;195.13;91.97;;;-1.30;99.90;;;;;;5078775;28;20024;-53
2024/01/14 07:48:48;;;;;;;197.98;93.10;;;-0.60;99.90;;;;;;5078783;28;20064;-53
2024/01/14 07:51:14;;;;;;;227.93;102.78;;;-0.90;99.90;;;;;;5078699;28;20070;-53
2024/01/14 07:53:40;;;;;;;199.95;96.65;;;-0.90;98.10;;;;;;5078677;28;20043;-53
2024/01/14 07:56:06;;;;;;;192.57;91.60;;;-0.60;97.50;;;;;;5078519;28;20047;-53
2024/01/14 07:58:32;;;;;;;197.07;91.97;;;-0.50;95.80;;;;;;5078587;28;20025;-53
2024/01/14 08:00:58;;;;;;;191.60;88.07;;;-0.60;95.90;;;;;;5078303;28;20360;-53
2024/01/14 08:03:23;;;;;;;178.38;89.82;;;-1.10;95.30;;;;;;5078475;28;20025;-53
2024/01/14 08:05:49;;;;;;;189.73;91.30;;;-1.20;95.70;;;;;;5078395;28;20028;-53
2024/01/14 08:08:15;;;;;;;171.98;85.43;;;-1.20;96.50;;;;;;5078025;28;20023;-53
2024/01/14 08:10:42;;;;;;;204.55;98.82;;;-1.30;97.00;;;;;;5078317;28;20024;-53
2024/01/14 08:13:08;;;;;;;205.23;98.95;;;-1.50;96.80;;;;;;5078205;28;20036;-53
2024/01/14 08:15:34;;;;;;;206.48;98.38;;;-1.30;97.10;;;;;;5078297;28;20099;-53
2024/01/14 08:18:00;;;;;;;207.93;98.88;;;-1.20;96.40;;;;;;5078054;28;20178;-53
2024/01/14 08:20:25;;;;;;;213.43;99.90;;;-1.20;97.60;;;;;;5078126;28;20028;-53
2024/01/14 08:22:54;;;;;;;221.32;103.45;;;-0.80;97.40;;;;;;5078047;28;20458;-53
2024/01/14 08:25:21;;;;;;;216.48;100.50;;;-0.50;97.00;;;;;;5078082;28;20041;-53
2024/01/14 08:27:50;;;;;;;217.85;103.20;;;0.30;95.50;;;;;;5078060;28;20458;-53
2024/01/14 08:30:15;;;;;;;290.45;120.70;;;0.70;95.10;;;;;;5078287;28;20466;-53
2024/01/14 08:32:41;;;;;;;255.80;110.85;;;0.60;94.50;;;;;;5077961;28;20115;-53
2024/01/14 08:35:07;;;;;;;243.07;108.43;;;0.90;94.60;;;;;;5077952;28;20035;-53
2024/01/14 08:37:33;;;;;;;230.57;103.93;;;1.20;94.20;;;;;;5077744;28;20470;-53
2024/01/14 08:39:59;;;;;;;216.18;97.95;;;1.10;93.80;;;;;;5078002;28;20033;-53
2024/01/14 08:42:24;;;;;;;212.05;99.85;;;0.80;93.10;;;;;;5077695;28;20496;-54
2024/01/14 08:44:50;;;;;;;220.95;105.70;;;0.40;93.40;;;;;;5077845;28;20425;-53
2024/01/14 08:47:16;;;;;;;235.60;112.40;;;-0.10;94.90;;;;;;5077448;28;20031;-54
2024/01/14 08:49:42;;;;;;;249.65;121.35;;;-0.70;95.90;;;;;;5077673;28;20040;-53
2024/01/14 08:52:08;;;;;;;289.67;138.45;;;-0.20;96.70;;;;;;5077858;28;20056;-53
2024/01/14 08:54:35;;;;;;;326.73;152.27;;;-0.20;95.80;;;;;;5076345;28;20032;-53
2024/01/14 08:57:01;;;;;;;311.90;150.05;;;-0.40;95.10;;;;;;5077549;28;20122;-53
2024/01/14 08:59:27;;;;;;;314.15;148.40;;;-0.30;96.30;;;;;;5077482;28;20386;-53
2024/01/14 09:01:53;;;;;;;312.55;145.65;;;-0.30;95.60;;;;;;5077418;28;20111;-53
2024/01/14 09:04:19;;;;;;;314.23;146.30;;;-0.20;96.10;;;;;;5077476;28;20130;-53
2024/01/14 09:06:45;;;;;;;310.33;144.90;;;0.10;97.10;;;;;;5077136;28;20538;-53
2024/01/14 09:09:11;;;;;;;275.48;131.55;;;0.30;96.50;;;;;;5076955;28;20044;-53
2024/01/14 09:11:38;;;;;;;284.50;134.27;;;0.50;95.40;;;;;;5077329;28;20375;-54
2024/01/14 09:14:05;;;;;;;264.02;125.38;;;0.70;95.10;;;;;;5077182;28;20462;-54
2024/01/14 09:16:30;;;;;;;282.08;131.93;;;1.20;95.30;;;;;;5077144;28;20033;-54
2024/01/14 09:18:56;;;;;;;274.80;131.07;;;1.00;94.20;;;;;;5077013;28;20036;-54
2024/01/14 09:21:22;;;;;;;265.05;126.05;;;1.20;94.70;;;;;;5076995;28;20485;-54
2024/01/14 09:23:48;;;;;;;266.13;125.68;;;1.60;93.70;;;;;;5077052;28;20027;-53
2024/01/14 09:26:14;;;;;;;264.60;124.32;;;1.90;93.80;;;;;;5077017;28;20037;-54
2024/01/14 09:28:39;;;;;;;257.77;122.07;;;2.40;93.10;;;;;;5076949;28;20370;-53
2024/01/14 09:31:06;;;;;;;261.63;122.32;;;2.70;92.50;;;;;;5076703;28;20028;-54
2024/01/14 09:33:32;;;;;;;232.93;116.07;;;2.90;92.20;;;;;;5076788;28;20059;-53
2024/01/14 09:36:08;;;;;;;282.42;120.25;;;3.10;91.30;;;;;;5076659;28;20105;-53
2024/01/14 09:38:35;;;;;;;295.08;129.25;;;3.30;91.30;;;;;;5076762;28;20032;-54
2024/01/14 09:41:18;;;;;;;291.58;131.70;;;3.50;91.40;;;;;;5076655;28;20025;-53
2024/01/14 09:43:49;;;;;;;263.17;129.90;;;4.00;90.50;;;;;;5075315;28;20107;-54
2024/01/14 09:46:16;;;;;;;257.42;126.38;;;4.10;89.40;;;;;;5076558;28;20043;-54
2024/01/14 09:48:44;;;;;;;248.25;124.47;;;3.70;87.90;;;;;;5076428;28;20024;-54
2024/01/14 09:51:10;;;;;;;262.98;125.95;;;3.60;88.80;;;;;;5075296;28;20029;-54
2024/01/14 09:53:37;;;;;;;260.17;127.57;;;4.20;88.50;;;;;;5076484;28;20051;-54
2024/01/14 09:56:07;;;;;;;250.02;127.35;;;4.10;85.10;;;;;;5076188;28;20041;-54
2024/01/14 09:58:34;;;;;;;289.58;138.15;;;4.30;87.10;;;;;;5075624;28;20081;-54
2024/01/14 10:01:04;;;;;;;330.17;161.68;;;4.00;88.70;;;;;;5076496;28;20105;-54
2024/01/14 10:03:30;;;;;;;354.87;178.63;;;4.10;85.00;;;;;;5076248;28;20024;-54
2024/01/14 10:05:56;;;;;;;335.52;173.40;;;4.20;86.80;;;;;;5076158;28;20028;-54
2024/01/14 10:08:22;;;;;;;344.70;177.18;;;4.40;86.00;;;;;;5075940;28;20489;-54
2024/01/14 10:10:55;;;;;;;373.73;182.98;;;4.50;84.50;;;;;;5075946;28;20017;-54
2024/01/14 10:13:21;;;;;;;359.60;191.65;;;3.90;83.00;;;;;;5075967;28;20024;-54
2024/01/14 10:15:48;;;;;;;358.00;188.02;;;4.30;86.50;;;;;;5075825;28;20040;-54
2024/01/14 10:18:13;;;;;;;365.65;190.20;;;4.70;84.60;;;;;;5075737;28;20056;-54
2024/01/14 10:20:39;;;;;;;376.95;186.50;;;4.70;83.30;;;;;;5075914;28;20036;-54
2024/01/14 10:23:06;;;;;;;356.50;187.98;;;5.10;83.00;;;;;;5075916;28;20024;-54
2024/01/14 10:25:32;;;;;;;354.70;187.93;;;5.00;84.40;;;;;;5075692;28;20044;-54
2024/01/14 10:28:03;;;;;;;404.33;207.00;;;4.70;83.20;;;;;;5075730;28;20093;-54
2024/01/14 10:30:29;;;;;;;409.27;214.07;;;5.10;81.10;;;;;;5075835;28;20358;-54
2024/01/14 10:32:55;;;;;;;417.70;221.18;;;4.60;81.60;;;;;;5075928;28;20020;-54
2024/01/14 10:35:23;;;;;;;396.15;213.98;;;5.00;81.00;;;;;;5075687;28;20032;-54
2024/01/14 10:37:49;;;;;;;403.75;211.02;;;5.30;80.20;;;;;;5075506;28;20025;-54
2024/01/14 10:40:17;;;;;;;459.33;250.73;;;5.40;80.00;;;;;;5075642;28;20044;-54
2024/01/14 10:42:44;;;;;;;452.65;239.23;;;5.60;78.20;;;;;;5075621;28;20025;-54
2024/01/14 10:45:10;;;;;;;449.27;232.00;;;5.70;78.40;;;;;;5075389;28;20028;-54
2024/01/14 10:47:36;;;;;;;430.33;223.48;;;6.50;80.40;;;;;;5075587;28;20024;-54
2024/01/14 10:50:03;;;;;;;420.80;222.63;;;7.10;75.20;;;;;;5075619;28;20500;-54
2024/01/14 10:52:35;;;;;;;456.08;237.07;;;7.40;71.20;;;;;;5075539;28;20025;-54
2024/01/14 10:55:52;;;;;;;431.63;237.75;;;7.20;69.20;;;;;;5075456;28;20655;-54
2024/01/14 10:58:31;;;;;;;416.80;221.35;;;7.40;70.30;;;;;;5033095;28;20320;-54
2024/01/14 11:01:03;;;;;;;442.58;237.15;;;7.40;70.80;;;;;;5032997;28;20044;-54
2024/01/14 11:03:29;;;;;;;444.02;238.15;;;7.40;69.30;;;;;;5033110;28;20041;-54
2024/01/14 11:05:56;;;;;;;426.92;227.07;;;7.20;67.70;;;;;;5033150;28;20107;-54
2024/01/14 11:08:21;;;;;;;371.92;206.40;;;6.70;69.40;;;;;;5032946;28;20073;-54
2024/01/14 11:10:50;;;;;;;394.38;210.90;;;6.90;69.20;;;;;;5036580;28;20076;-54
2024/01/14 11:13:26;;;;;;;389.98;200.43;;;6.90;68.60;;;;;;5037164;28;20037;-54
2024/01/14 11:15:55;;;;;;;376.23;190.80;;;7.10;70.00;;;;;;5036763;28;20037;-54
2024/01/14 11:19:03;;;;;;;358.42;188.07;;;7.60;66.80;;;;;;5036952;28;20072;-54
2024/01/14 11:21:56;;;;;;;340.60;178.40;;;8.00;68.00;;;;;;4977973;28;20492;-54
2024/01/14 11:24:25;;;;;;;348.38;187.77;;;8.10;67.30;;;;;;4978154;28;20082;-54
2024/01/14 11:26:51;;;;;;;306.50;165.00;;;8.60;65.90;;;;;;4978058;28;20046;-54
2024/01/14 11:29:36;;;;;;;312.00;164.43;;;9.20;64.80;;;;;;5013087;28;20038;-54
2024/01/14 11:32:06;;;;;;;270.15;144.20;;;9.20;63.30;;;;;;5036454;28;20038;-54
2024/01/14 11:34:47;;;;;;;260.43;138.67;;;8.70;63.90;;;;;;5036781;28;20068;-54
2024/01/14 11:37:39;;;;;;;183.45;105.28;;;8.60;63.40;;;;;;5036672;28;20042;-54
2024/01/14 11:40:08;;;;;;;212.95;111.93;;;8.50;65.10;;;;;;5036734;28;20037;-54
2024/01/14 11:42:56;;;;;;;219.02;119.07;;;8.00;65.80;;;;;;5036562;28;20553;-54
2024/01/14 11:45:27;;;;;;;214.23;113.32;;;7.50;68.70;;;;;;5036435;28;20109;-54
2024/01/14 11:47:56;;;;;;;203.05;103.00;;;7.40;70.50;;;;;;5036588;28;20083;-54
2024/01/14 11:50:26;;;;;;;176.25;96.43;;;7.10;72.90;;;;;;5036483;28;20087;-54
2024/01/14 11:52:54;;;;;;;192.60;101.43;;;7.00;72.10;;;;;;5069521;28;20090;-54
2024/01/14 11:55:29;;;;;;;167.90;91.00;;;7.10;72.00;;;;;;5078634;28;20028;-54
2024/01/14 11:57:55;;;;;;;173.77;94.68;;;7.00;73.40;;;;;;5078449;28;20088;-54
2024/01/14 12:00:24;;;;;;;195.68;95.45;;;7.10;71.20;;;;;;5078805;28;20055;-54
2024/01/14 12:03:10;;;;;;;165.65;86.63;;;7.50;71.80;;;;;;5078476;28;20033;-54
2024/01/14 12:05:36;;;;;;;152.25;81.22;;;7.80;69.60;;;;;;5078484;28;20474;-54
2024/01/14 12:08:03;;;;;;;157.60;82.00;;;8.10;69.10;;;;;;5078305;28;20119;-54
2024/01/14 12:10:31;;;;;;;166.70;92.32;;;8.20;68.50;;;;;;5078402;28;20386;-55
2024/01/14 12:13:02;;;;;;;182.20;89.35;;;8.10;66.40;;;;;;5078389;28;20457;-54
2024/01/14 12:15:28;;;;;;;154.20;82.70;;;8.40;68.70;;;;;;5078272;28;20032;-54
2024/01/14 12:17:59;;;;;;;154.50;82.80;;;8.30;67.60;;;;;;5077948;28;20098;-54